createdAt,value
2022-12-23T00:00:45.303Z,8.27
2022-12-23T00:03:30.942Z,8.22
2022-12-23T00:06:17.496Z,8.30
2022-12-23T00:09:03.500Z,8.48
2022-12-23T00:12:06.937Z,8.57
2022-12-23T00:15:07.071Z,8.66
2022-12-23T00:17:51.964Z,8.78
2022-12-23T00:20:37.032Z,8.82
2022-12-23T00:23:22.171Z,8.87
2022-12-23T00:26:08.165Z,8.90
2022-12-23T00:28:55.838Z,8.92
2022-12-23T00:31:40.859Z,8.97
2022-12-23T00:34:25.922Z,8.97
2022-12-23T00:37:11.045Z,9.02
2022-12-23T00:40:14.649Z,9.02
2022-12-23T00:43:01.007Z,9.01
2022-12-23T00:45:47.122Z,8.98
2022-12-23T00:48:50.570Z,8.98
2022-12-23T00:51:35.789Z,8.91
2022-12-23T00:54:20.600Z,8.91
2022-12-23T00:57:06.330Z,8.92
2022-12-23T00:59:51.380Z,8.93
2022-12-23T01:02:55.277Z,8.94
2022-12-23T01:05:40.400Z,8.96
2022-12-23T01:08:26.474Z,9.01
2022-12-23T01:11:12.382Z,8.99
2022-12-23T01:13:58.563Z,9.03
2022-12-23T01:16:44.741Z,9.04
2022-12-23T01:19:29.683Z,9.04
2022-12-23T01:22:14.523Z,9.06
2022-12-23T01:24:59.274Z,9.04
2022-12-23T01:27:44.148Z,9.03
2022-12-23T01:30:29.177Z,8.99
2022-12-23T01:33:14.229Z,8.98
2022-12-23T01:36:04.920Z,8.98
2022-12-23T01:38:50.321Z,9.01
2022-12-23T01:41:53.891Z,9.13
2022-12-23T01:45:14.029Z,9.13
2022-12-23T01:48:10.380Z,9.10
2022-12-23T01:51:02.607Z,9.13
2022-12-23T01:53:51.729Z,9.13
2022-12-23T01:56:39.387Z,9.16
2022-12-23T01:59:43.346Z,9.16
2022-12-23T02:02:50.162Z,9.21
2022-12-23T02:05:35.592Z,9.22
2022-12-23T02:08:39.125Z,9.19
2022-12-23T02:11:48.333Z,9.19
2022-12-23T02:15:10.521Z,9.17
2022-12-23T02:18:17.447Z,9.20
2022-12-23T02:21:37.400Z,9.20
2022-12-23T02:24:55.622Z,9.23
2022-12-23T02:28:08.474Z,9.26
2022-12-23T02:31:03.910Z,9.32
2022-12-23T02:34:18.749Z,9.43
2022-12-23T02:37:18.824Z,9.39
2022-12-23T02:40:09.410Z,9.41
2022-12-23T02:43:04.925Z,9.42
2022-12-23T02:46:13.892Z,9.47
2022-12-23T02:49:06.552Z,9.50
2022-12-23T02:51:54.612Z,9.50
2022-12-23T02:54:48.795Z,9.50
2022-12-23T02:57:37.279Z,9.49
2022-12-23T03:00:23.115Z,9.45
2022-12-23T03:03:08.615Z,9.53
2022-12-23T03:05:54.693Z,9.61
2022-12-23T03:08:43.835Z,9.62
2022-12-23T03:11:39.981Z,9.59
2022-12-23T03:14:36.460Z,9.60
2022-12-23T03:17:52.397Z,9.68
2022-12-23T03:21:01.690Z,9.69
2022-12-23T03:24:19.480Z,9.70
2022-12-23T03:27:18.841Z,9.66
2022-12-23T03:30:09.795Z,9.63
2022-12-23T03:33:04.344Z,9.60
2022-12-23T03:35:55.331Z,9.61
2022-12-23T03:38:43.680Z,9.54
2022-12-23T03:41:35.344Z,9.61
2022-12-23T03:44:26.262Z,9.65
2022-12-23T03:47:23.996Z,9.69
2022-12-23T03:50:12.516Z,9.69
2022-12-23T03:53:02.964Z,9.65
2022-12-23T03:55:56.630Z,9.67
2022-12-23T03:59:02.715Z,9.62
2022-12-23T04:02:03.637Z,9.54
2022-12-23T04:05:11.751Z,9.49
2022-12-23T04:08:44.949Z,9.46
2022-12-23T04:11:29.888Z,9.38
2022-12-23T04:14:19.417Z,9.31
2022-12-23T04:17:04.689Z,9.28
2022-12-23T04:19:52.930Z,9.24
2022-12-23T04:22:39.414Z,9.23
2022-12-23T04:25:24.379Z,9.23
2022-12-23T04:28:09.307Z,9.21
2022-12-23T04:30:54.217Z,9.22
2022-12-23T04:33:39.336Z,9.25
2022-12-23T04:36:24.133Z,9.18
2022-12-23T04:39:09.756Z,9.23
2022-12-23T04:41:54.745Z,9.21
2022-12-23T04:44:39.932Z,9.24
2022-12-23T04:47:25.230Z,9.24
2022-12-23T04:50:14.614Z,9.23
2022-12-23T04:52:59.614Z,9.22
2022-12-23T04:55:49.222Z,9.31
2022-12-23T04:58:34.560Z,9.32
2022-12-23T05:01:19.432Z,9.29
2022-12-23T05:04:04.783Z,9.27
2022-12-23T05:06:51.028Z,9.24
2022-12-23T05:09:35.955Z,9.25
2022-12-23T05:12:20.777Z,9.21
2022-12-23T05:15:06.203Z,9.23
2022-12-23T05:17:51.235Z,9.24
2022-12-23T05:20:36.486Z,9.24
2022-12-23T05:23:21.658Z,9.20
2022-12-23T05:26:06.804Z,9.18
2022-12-23T05:28:51.877Z,9.18
2022-12-23T05:31:36.943Z,9.14
2022-12-23T05:34:22.136Z,9.14
2022-12-23T05:37:07.448Z,9.15
2022-12-23T05:39:52.677Z,9.13
2022-12-23T05:42:37.785Z,9.15
2022-12-23T05:45:22.775Z,9.16
2022-12-23T05:48:08.213Z,9.15
2022-12-23T05:50:53.592Z,9.24
2022-12-23T05:53:38.628Z,9.28
2022-12-23T05:56:23.667Z,9.25
2022-12-23T05:59:08.819Z,9.29
2022-12-23T06:01:54.404Z,9.31
2022-12-23T06:04:39.507Z,9.37
2022-12-23T06:07:24.372Z,9.34
2022-12-23T06:10:10.697Z,9.35
2022-12-23T06:12:56.514Z,9.34
2022-12-23T06:15:41.535Z,9.32
2022-12-23T06:18:26.267Z,9.29
2022-12-23T06:21:11.331Z,9.30
2022-12-23T06:23:56.017Z,9.29
2022-12-23T06:26:42.371Z,9.35
2022-12-23T06:29:27.632Z,9.32
2022-12-23T06:32:12.762Z,9.29
2022-12-23T06:34:57.957Z,9.24
2022-12-23T06:37:43.177Z,9.23
2022-12-23T06:40:29.118Z,9.19
2022-12-23T06:43:13.932Z,9.16
2022-12-23T06:45:59.164Z,9.16
2022-12-23T06:48:44.320Z,9.16
2022-12-23T06:51:29.589Z,9.15
2022-12-23T06:54:14.539Z,9.16
2022-12-23T06:56:59.513Z,9.13
2022-12-23T06:59:44.342Z,9.11
2022-12-23T07:02:29.519Z,9.10
2022-12-23T07:05:14.899Z,9.04
2022-12-23T07:07:59.900Z,9.01
2022-12-23T07:10:45.540Z,8.98
2022-12-23T07:13:32.714Z,8.93
2022-12-23T07:16:17.848Z,8.93
2022-12-23T07:19:02.984Z,8.94
2022-12-23T07:21:47.925Z,8.91
2022-12-23T07:24:32.880Z,8.91
2022-12-23T07:27:18.029Z,8.91
2022-12-23T07:30:03.651Z,8.92
2022-12-23T07:32:49.798Z,8.93
2022-12-23T07:35:34.597Z,8.92
2022-12-23T07:38:19.707Z,8.92
2022-12-23T07:41:04.918Z,8.91
2022-12-23T07:43:49.971Z,8.91
2022-12-23T07:46:34.890Z,8.89
2022-12-23T07:49:20.033Z,8.91
2022-12-23T07:52:05.151Z,8.93
2022-12-23T07:54:50.102Z,8.94
2022-12-23T07:57:37.799Z,8.94
2022-12-23T08:00:22.836Z,8.94
2022-12-23T08:03:08.259Z,8.96
2022-12-23T08:06:05.119Z,8.97
2022-12-23T08:08:49.805Z,8.95
2022-12-23T08:11:34.841Z,8.98
2022-12-23T08:14:19.837Z,8.95
2022-12-23T08:17:05.334Z,8.97
2022-12-23T08:19:50.382Z,8.96
2022-12-23T08:22:35.212Z,8.95
2022-12-23T08:25:20.093Z,8.95
2022-12-23T08:28:05.097Z,8.97
2022-12-23T08:30:49.947Z,9.01
2022-12-23T08:33:36.609Z,9.01
2022-12-23T08:36:31.106Z,8.97
2022-12-23T08:39:18.531Z,8.98
2022-12-23T08:42:03.528Z,8.97
2022-12-23T08:44:48.838Z,8.98
2022-12-23T08:47:34.117Z,8.98
2022-12-23T08:50:19.888Z,9.04
2022-12-23T08:53:05.932Z,8.99
2022-12-23T08:55:50.899Z,9.01
2022-12-23T08:58:37.933Z,8.98
2022-12-23T09:01:26.053Z,9.01
2022-12-23T09:04:11.036Z,9.03
2022-12-23T09:06:56.114Z,9.05
2022-12-23T09:09:41.305Z,9.09
2022-12-23T09:12:26.534Z,9.09
2022-12-23T09:15:12.096Z,9.10
2022-12-23T09:17:56.957Z,9.14
2022-12-23T09:20:42.049Z,9.16
2022-12-23T09:23:27.609Z,9.17
2022-12-23T09:26:20.835Z,9.17
2022-12-23T09:29:05.994Z,9.16
2022-12-23T09:31:51.121Z,9.15
2022-12-23T09:34:36.180Z,9.08
2022-12-23T09:37:21.240Z,9.13
2022-12-23T09:40:07.266Z,9.10
2022-12-23T09:43:09.754Z,9.09
2022-12-23T09:46:15.584Z,9.01
2022-12-23T09:49:10.998Z,9.02
2022-12-23T09:52:03.149Z,9.03
2022-12-23T09:54:52.442Z,8.95
2022-12-23T09:57:50.901Z,8.97
2022-12-23T10:00:45.205Z,8.97
2022-12-23T10:03:42.865Z,8.92
2022-12-23T10:06:29.254Z,8.89
2022-12-23T10:09:17.268Z,8.87
2022-12-23T10:12:11.082Z,8.88
2022-12-23T10:15:00.824Z,8.83
2022-12-23T10:17:46.562Z,8.86
2022-12-23T10:21:01.522Z,8.90
2022-12-23T10:23:51.020Z,8.87
2022-12-23T10:26:45.363Z,8.89
2022-12-23T10:29:31.941Z,8.88
2022-12-23T10:32:17.274Z,8.88
2022-12-23T10:35:15.600Z,8.84
2022-12-23T10:38:28.508Z,8.84
2022-12-23T10:41:33.899Z,8.91
2022-12-23T10:44:41.315Z,8.89
2022-12-23T10:47:50.554Z,8.92
2022-12-23T10:50:51.060Z,8.95
2022-12-23T10:53:43.934Z,8.97
2022-12-23T10:56:30.721Z,8.93
2022-12-23T10:59:20.506Z,8.87
2022-12-23T11:02:23.393Z,8.86
2022-12-23T11:05:16.854Z,8.88
2022-12-23T11:08:02.335Z,8.88
2022-12-23T11:10:48.529Z,8.92
2022-12-23T11:13:40.422Z,8.88
2022-12-23T11:16:28.397Z,8.85
2022-12-23T11:19:16.784Z,8.85
2022-12-23T11:22:02.176Z,8.84
2022-12-23T11:24:47.388Z,8.87
2022-12-23T11:27:32.967Z,8.89
2022-12-23T11:30:19.055Z,8.92
2022-12-23T11:33:04.564Z,8.80
2022-12-23T11:36:00.426Z,8.83
2022-12-23T11:39:02.110Z,8.82
2022-12-23T11:41:50.677Z,8.86
2022-12-23T11:44:45.959Z,8.87
2022-12-23T11:47:41.536Z,8.83
2022-12-23T11:50:36.969Z,8.81
2022-12-23T11:53:24.305Z,8.76
2022-12-23T11:56:13.472Z,8.82
2022-12-23T11:59:07.668Z,8.88
2022-12-23T12:01:53.623Z,8.93
2022-12-23T12:04:41.135Z,8.88
2022-12-23T12:07:26.960Z,8.80
2022-12-23T12:10:42.369Z,8.79
2022-12-23T12:13:41.656Z,8.76
2022-12-23T12:16:55.766Z,8.76
2022-12-23T12:19:53.621Z,8.75
2022-12-23T12:22:49.200Z,8.69
2022-12-23T12:25:44.119Z,8.70
2022-12-23T12:28:34.931Z,8.69
2022-12-23T12:31:34.238Z,8.71
2022-12-23T12:34:53.453Z,8.74
2022-12-23T12:37:48.121Z,8.79
2022-12-23T12:40:44.699Z,8.79
2022-12-23T12:43:46.357Z,8.82
2022-12-23T12:46:59.657Z,8.82
2022-12-23T12:49:56.907Z,8.80
2022-12-23T12:52:42.860Z,8.75
2022-12-23T12:55:37.705Z,8.76
2022-12-23T12:58:24.294Z,8.71
2022-12-23T13:01:37.492Z,8.68
2022-12-23T13:04:41.962Z,8.62
2022-12-23T13:07:29.648Z,8.59
2022-12-23T13:10:45.359Z,8.59
2022-12-23T13:13:48.265Z,8.61
2022-12-23T13:17:01.559Z,8.56
2022-12-23T13:19:52.607Z,8.61
2022-12-23T13:22:38.520Z,8.60
2022-12-23T13:25:41.124Z,8.67
2022-12-23T13:28:29.289Z,8.66
2022-12-23T13:31:33.226Z,8.71
2022-12-23T13:34:40.433Z,8.66
2022-12-23T13:37:36.105Z,8.71
2022-12-23T13:40:29.352Z,8.67
2022-12-23T13:43:18.811Z,8.65
2022-12-23T13:46:21.664Z,8.63
2022-12-23T13:49:24.750Z,8.63
2022-12-23T13:52:15.800Z,8.62
2022-12-23T13:55:24.204Z,8.65
2022-12-23T13:58:18.592Z,8.67
2022-12-23T14:01:09.273Z,8.72
2022-12-23T14:03:54.134Z,8.70
2022-12-23T14:06:38.821Z,8.74
2022-12-23T14:09:36.927Z,8.72
2022-12-23T14:12:37.135Z,8.72
2022-12-23T14:15:42.388Z,8.78
2022-12-23T14:18:50.717Z,8.80
2022-12-23T14:21:57.749Z,8.81
2022-12-23T14:25:04.380Z,8.82
2022-12-23T14:28:18.817Z,8.82
2022-12-23T14:31:05.305Z,8.82
2022-12-23T14:33:51.256Z,8.83
2022-12-23T14:36:36.238Z,8.86
2022-12-23T14:39:31.303Z,8.89
2022-12-23T14:42:40.349Z,8.89
2022-12-23T14:45:35.900Z,8.91
2022-12-23T14:48:36.127Z,8.92
2022-12-23T14:51:39.333Z,8.93
2022-12-23T14:54:39.352Z,8.93
2022-12-23T14:57:28.518Z,8.96
2022-12-23T15:00:13.451Z,8.97
2022-12-23T15:03:00.660Z,8.98
2022-12-23T15:05:46.196Z,9.03
2022-12-23T15:08:36.564Z,9.06
2022-12-23T15:11:29.531Z,9.15
2022-12-23T15:14:28.320Z,9.17
2022-12-23T15:17:28.383Z,9.29
2022-12-23T15:20:18.510Z,9.39
2022-12-23T15:23:30.176Z,9.70
2022-12-23T15:26:15.236Z,9.63
2022-12-23T15:29:01.066Z,9.72
2022-12-23T15:31:50.400Z,9.94
2022-12-23T15:34:35.229Z,9.96
2022-12-23T15:37:29.204Z,9.94
2022-12-23T15:40:31.910Z,9.88
2022-12-23T15:43:23.778Z,10.12
2022-12-23T15:46:16.103Z,10.36
2022-12-23T15:49:01.812Z,10.59
2022-12-23T15:52:18.100Z,10.99
2022-12-23T15:55:23.761Z,11.47
2022-12-23T15:58:17.817Z,11.66
2022-12-23T16:01:03.653Z,11.58
2022-12-23T16:03:52.672Z,11.56
2022-12-23T16:06:38.919Z,11.69
2022-12-23T16:09:31.933Z,11.71
2022-12-23T16:12:23.657Z,11.74
2022-12-23T16:15:29.719Z,11.93
2022-12-23T16:18:24.164Z,11.77
2022-12-23T16:21:13.787Z,11.78
2022-12-23T16:23:59.867Z,11.67
2022-12-23T16:26:44.908Z,11.84
2022-12-23T16:29:33.352Z,11.77
2022-12-23T16:32:19.342Z,11.82
2022-12-23T16:35:12.432Z,11.86
2022-12-23T16:38:09.841Z,11.87
2022-12-23T16:40:56.646Z,11.79
2022-12-23T16:43:49.422Z,11.79
2022-12-23T16:46:41.905Z,11.86
2022-12-23T16:49:33.418Z,12.01
2022-12-23T16:52:19.070Z,12.19
2022-12-23T16:55:12.849Z,12.07
2022-12-23T16:57:57.574Z,11.94
2022-12-23T17:00:42.616Z,11.92
2022-12-23T17:03:27.850Z,12.16
2022-12-23T17:06:14.905Z,12.13
2022-12-23T17:08:59.837Z,11.98
2022-12-23T17:11:48.438Z,11.92
2022-12-23T17:14:33.341Z,11.88
2022-12-23T17:17:18.562Z,11.84
2022-12-23T17:20:04.025Z,11.88
2022-12-23T17:22:52.313Z,11.94
2022-12-23T17:25:36.928Z,11.94
2022-12-23T17:28:23.140Z,11.96
2022-12-23T17:31:14.196Z,11.92
2022-12-23T17:34:01.689Z,11.86
2022-12-23T17:36:50.420Z,11.87
2022-12-23T17:39:35.896Z,11.83
2022-12-23T17:42:25.825Z,11.76
2022-12-23T17:45:31.750Z,11.70
2022-12-23T17:48:20.822Z,11.77
2022-12-23T17:51:15.520Z,11.71
2022-12-23T17:54:00.558Z,11.62
2022-12-23T17:56:45.505Z,11.65
2022-12-23T17:59:30.401Z,11.65
2022-12-23T18:02:21.129Z,11.61
2022-12-23T18:05:20.331Z,11.55
2022-12-23T18:08:05.237Z,11.52
2022-12-23T18:10:50.216Z,11.52
2022-12-23T18:13:36.156Z,11.55
2022-12-23T18:16:21.312Z,11.61
2022-12-23T18:19:15.157Z,11.57
2022-12-23T18:22:00.229Z,11.72
2022-12-23T18:24:46.575Z,11.80
2022-12-23T18:27:31.418Z,11.71
2022-12-23T18:30:17.767Z,11.71
2022-12-23T18:33:02.626Z,11.66
2022-12-23T18:35:49.528Z,11.75
2022-12-23T18:38:34.312Z,11.78
2022-12-23T18:41:20.924Z,11.76
2022-12-23T18:44:06.166Z,11.76
2022-12-23T18:46:51.286Z,11.66
2022-12-23T18:49:37.179Z,11.55
2022-12-23T18:52:21.935Z,11.69
2022-12-23T18:55:07.391Z,11.63
2022-12-23T18:57:52.525Z,11.54
2022-12-23T19:00:37.651Z,11.67
2022-12-23T19:03:25.757Z,11.55
2022-12-23T19:06:16.281Z,11.57
2022-12-23T19:09:01.484Z,11.53
2022-12-23T19:11:48.111Z,11.49
2022-12-23T19:14:33.318Z,11.48
2022-12-23T19:17:18.172Z,11.57
2022-12-23T19:20:04.565Z,11.56
2022-12-23T19:22:49.554Z,11.51
2022-12-23T19:25:34.537Z,11.44
2022-12-23T19:28:20.024Z,11.48
2022-12-23T19:31:13.005Z,11.46
2022-12-23T19:33:59.617Z,11.47
2022-12-23T19:36:44.765Z,11.44
2022-12-23T19:39:29.707Z,11.45
2022-12-23T19:42:14.778Z,11.43
2022-12-23T19:45:00.563Z,11.56
2022-12-23T19:47:45.381Z,11.47
2022-12-23T19:50:30.484Z,11.48
2022-12-23T19:53:15.634Z,11.48
2022-12-23T19:56:06.995Z,11.46
2022-12-23T19:58:51.896Z,11.51
2022-12-23T20:01:36.973Z,11.43
2022-12-23T20:04:24.765Z,11.53
2022-12-23T20:07:09.980Z,11.40
2022-12-23T20:09:54.808Z,11.44
2022-12-23T20:12:40.004Z,11.38
2022-12-23T20:15:25.176Z,11.33
2022-12-23T20:18:10.376Z,11.29
2022-12-23T20:20:55.722Z,11.35
2022-12-23T20:23:40.951Z,11.45
2022-12-23T20:26:27.561Z,11.36
2022-12-23T20:29:12.568Z,11.43
2022-12-23T20:31:57.601Z,11.48
2022-12-23T20:34:42.462Z,11.46
2022-12-23T20:37:27.592Z,11.47
2022-12-23T20:40:14.462Z,11.47
2022-12-23T20:42:59.505Z,11.56
2022-12-23T20:45:46.197Z,11.49
2022-12-23T20:48:34.497Z,11.44
2022-12-23T20:51:23.697Z,11.46
2022-12-23T20:54:09.154Z,11.41
2022-12-23T20:56:54.405Z,11.50
2022-12-23T20:59:39.469Z,11.44
2022-12-23T21:02:25.229Z,11.41
2022-12-23T21:05:10.248Z,11.35
2022-12-23T21:07:55.391Z,11.41
2022-12-23T21:10:40.533Z,11.43
2022-12-23T21:13:25.561Z,11.42
2022-12-23T21:16:12.876Z,11.36
2022-12-23T21:18:58.869Z,11.38
2022-12-23T21:21:44.499Z,11.43
2022-12-23T21:24:29.610Z,11.41
2022-12-23T21:27:14.783Z,11.35
2022-12-23T21:29:59.898Z,11.35
2022-12-23T21:32:44.630Z,11.29
2022-12-23T21:35:29.504Z,11.25
2022-12-23T21:38:14.665Z,11.20
2022-12-23T21:41:01.671Z,11.20
2022-12-23T21:43:47.981Z,11.21
2022-12-23T21:46:33.190Z,11.15
2022-12-23T21:49:19.502Z,11.10
2022-12-23T21:52:04.500Z,11.08
2022-12-23T21:54:49.626Z,11.11
2022-12-23T21:57:34.795Z,11.04
2022-12-23T22:00:20.067Z,11.04
2022-12-23T22:03:05.118Z,10.94
2022-12-23T22:05:50.114Z,11.12
2022-12-23T22:08:35.428Z,11.15
2022-12-23T22:11:23.220Z,11.22
2022-12-23T22:14:12.310Z,11.21
2022-12-23T22:16:57.418Z,11.25
2022-12-23T22:19:42.391Z,11.22
2022-12-23T22:22:27.485Z,11.16
2022-12-23T22:25:12.576Z,11.19
2022-12-23T22:27:57.400Z,11.23
2022-12-23T22:30:42.511Z,11.18
2022-12-23T22:33:27.654Z,11.12
2022-12-23T22:36:14.968Z,11.11
2022-12-23T22:39:01.824Z,11.11
2022-12-23T22:41:46.917Z,11.06
2022-12-23T22:44:31.970Z,11.04
2022-12-23T22:47:16.985Z,11.02
2022-12-23T22:50:02.175Z,10.92
2022-12-23T22:52:47.209Z,10.89
2022-12-23T22:55:32.386Z,10.79
2022-12-23T22:58:17.509Z,10.77
2022-12-23T23:01:02.617Z,10.72
2022-12-23T23:03:50.879Z,10.72
2022-12-23T23:06:38.378Z,10.76
2022-12-23T23:09:23.248Z,10.73
2022-12-23T23:12:08.322Z,10.69
2022-12-23T23:14:53.278Z,10.70
2022-12-23T23:17:38.360Z,10.72
2022-12-23T23:20:23.525Z,10.75
2022-12-23T23:23:08.449Z,10.79
2022-12-23T23:25:53.514Z,10.82
2022-12-23T23:28:39.850Z,10.78
2022-12-23T23:31:41.928Z,10.77
2022-12-23T23:34:28.143Z,10.69
2022-12-23T23:37:14.026Z,10.58
2022-12-23T23:39:59.046Z,10.65
2022-12-23T23:42:44.222Z,10.67
2022-12-23T23:45:30.153Z,10.65
2022-12-23T23:48:16.038Z,10.66
2022-12-23T23:51:05.944Z,10.71
2022-12-23T23:53:50.989Z,10.67
2022-12-23T23:56:38.555Z,10.57
2022-12-23T23:59:23.894Z,10.54
